Time;durP1;ratioP1;P1;durP2;ratioP2;P2;SDS_P1;SDS_P2;PMS_P1;PMS_P2;Temp;Humidity;BMP_temperature;BMP_pressure;BME280_temperature;BME280_humidity;BME280_pressure;Samples;Min_cycle;Max_cycle;Signal;HPM_P1;HPM_P2
2024/03/25 00:01:53;;;;;;;3.30;1.02;;;;;;;;;;5089148;28;20109;-60
2024/03/25 00:04:22;;;;;;;1.30;0.88;;;;;;;;;;5089261;28;20085;-61
2024/03/25 00:06:50;;;;;;;0.70;0.70;;;;;;;;;;5036779;28;20699;-61
2024/03/25 00:09:17;;;;;;;1.20;1.00;;;;;;;;;;4986213;28;20054;-59
2024/03/25 00:11:44;;;;;;;1.35;0.93;;;;;;;;;;4987079;28;20441;-61
2024/03/25 00:14:11;;;;;;;1.45;1.10;;;;;;;;;;4984287;28;20050;-61
2024/03/25 00:16:38;;;;;;;1.95;0.93;;;;;;;;;;4985123;28;20435;-61
2024/03/25 00:19:06;;;;;;;1.23;0.90;;;;;;;;;;4989894;28;20100;-63
2024/03/25 00:21:33;;;;;;;0.82;0.80;;;;;;;;;;4991599;28;20050;-61
2024/03/25 00:24:00;;;;;;;3.42;1.20;;;;;;;;;;4991347;28;20054;-60
2024/03/25 00:26:28;;;;;;;0.80;0.80;;;;;;;;;;4986071;28;20051;-60
2024/03/25 00:28:54;;;;;;;1.30;1.20;;;;;;;;;;4986898;28;20517;-60
2024/03/25 00:31:21;;;;;;;5.05;1.30;;;;;;;;;;5000883;28;20092;-62
2024/03/25 00:33:48;;;;;;;0.73;0.70;;;;;;;;;;4988633;28;20054;-61
2024/03/25 00:36:17;;;;;;;1.35;0.90;;;;;;;;;;4998962;28;20394;-60
2024/03/25 00:38:44;;;;;;;2.83;1.20;;;;;;;;;;5087556;28;20048;-60
2024/03/25 00:41:11;;;;;;;0.88;0.80;;;;;;;;;;5089134;28;20492;-62
2024/03/25 00:43:38;;;;;;;1.00;0.90;;;;;;;;;;5086808;28;20109;-60
2024/03/25 00:46:06;;;;;;;1.23;1.00;;;;;;;;;;5078740;28;20040;-60
2024/03/25 00:48:32;;;;;;;1.85;1.08;;;;;;;;;;4986109;28;20568;-59
2024/03/25 00:50:59;;;;;;;3.15;1.00;;;;;;;;;;4986993;28;20058;-60
2024/03/25 00:53:27;;;;;;;3.13;0.93;;;;;;;;;;4984872;28;20050;-59
2024/03/25 00:55:55;;;;;;;4.82;1.10;;;;;;;;;;4986315;28;20050;-59
2024/03/25 00:58:21;;;;;;;1.20;1.10;;;;;;;;;;4985358;28;20051;-61
2024/03/25 01:00:48;;;;;;;2.30;1.15;;;;;;;;;;4985012;28;20051;-61
2024/03/25 01:03:15;;;;;;;3.38;1.27;;;;;;;;;;4985979;28;20050;-63
2024/03/25 01:05:43;;;;;;;1.92;1.10;;;;;;;;;;4986979;28;20428;-60
2024/03/25 01:08:10;;;;;;;2.20;1.13;;;;;;;;;;4982780;28;20411;-62
2024/03/25 01:10:39;;;;;;;1.30;0.90;;;;;;;;;;4981307;28;20080;-60
2024/03/25 01:13:07;;;;;;;1.23;1.05;;;;;;;;;;4995101;28;20051;-62
2024/03/25 01:15:34;;;;;;;1.38;0.98;;;;;;;;;;4986718;28;20054;-60
2024/03/25 01:18:01;;;;;;;1.20;0.80;;;;;;;;;;4983813;28;20129;-60
2024/03/25 01:20:28;;;;;;;1.88;0.93;;;;;;;;;;4986658;28;20050;-61
2024/03/25 01:22:55;;;;;;;1.10;1.00;;;;;;;;;;4996018;28;20077;-62
2024/03/25 01:25:22;;;;;;;1.38;1.10;;;;;;;;;;4986005;28;20053;-60
2024/03/25 01:27:50;;;;;;;1.23;0.82;;;;;;;;;;4984023;28;20084;-61
2024/03/25 01:30:18;;;;;;;1.75;1.00;;;;;;;;;;4985816;28;20050;-60
2024/03/25 01:32:47;;;;;;;1.00;0.90;;;;;;;;;;5010757;28;20396;-60
2024/03/25 01:35:15;;;;;;;1.35;0.88;;;;;;;;;;4996519;28;20054;-62
2024/03/25 01:37:41;;;;;;;2.72;1.00;;;;;;;;;;4984562;28;20046;-60
2024/03/25 01:40:10;;;;;;;0.88;0.82;;;;;;;;;;4993949;28;20054;-60
2024/03/25 01:42:36;;;;;;;1.95;1.17;;;;;;;;;;5049706;28;20073;-59
2024/03/25 01:45:06;;;;;;;2.15;1.00;;;;;;;;;;5021012;28;20473;-59
2024/03/25 01:47:35;;;;;;;1.38;0.90;;;;;;;;;;4986936;28;20058;-60
2024/03/25 01:50:03;;;;;;;1.30;1.08;;;;;;;;;;4996935;28;20652;-60
2024/03/25 01:52:30;;;;;;;1.23;1.00;;;;;;;;;;4985585;28;20046;-60
2024/03/25 01:54:57;;;;;;;2.17;1.20;;;;;;;;;;5070191;27;20066;-60
2024/03/25 01:57:24;;;;;;;4.75;1.27;;;;;;;;;;4984139;28;20088;-60
2024/03/25 01:59:51;;;;;;;1.70;1.02;;;;;;;;;;4985837;28;20046;-60
2024/03/25 02:02:19;;;;;;;1.30;1.15;;;;;;;;;;4985019;28;20438;-60
2024/03/25 02:04:46;;;;;;;1.88;0.90;;;;;;;;;;4984882;28;20052;-61
2024/03/25 02:07:13;;;;;;;1.30;0.80;;;;;;;;;;4984387;28;20372;-60
2024/03/25 02:09:41;;;;;;;1.45;1.10;;;;;;;;;;4985214;28;20091;-62
2024/03/25 02:12:09;;;;;;;0.80;0.80;;;;;;;;;;4984821;28;20054;-62
2024/03/25 02:14:36;;;;;;;0.98;0.80;;;;;;;;;;4981285;28;20046;-60
2024/03/25 02:17:03;;;;;;;1.83;1.00;;;;;;;;;;4983751;28;20398;-59
2024/03/25 02:19:32;;;;;;;1.92;1.05;;;;;;;;;;4984685;28;20426;-60
2024/03/25 02:21:59;;;;;;;1.30;1.17;;;;;;;;;;4999547;28;20481;-59
2024/03/25 02:24:27;;;;;;;0.75;0.75;;;;;;;;;;4992288;28;20102;-61
2024/03/25 02:26:55;;;;;;;3.72;1.35;;;;;;;;;;4984246;28;20058;-62
2024/03/25 02:29:22;;;;;;;1.95;1.17;;;;;;;;;;4985461;28;20469;-61
2024/03/25 02:31:48;;;;;;;1.40;1.10;;;;;;;;;;4984144;28;20098;-61
2024/03/25 02:34:16;;;;;;;2.05;1.10;;;;;;;;;;5012144;28;20054;-60
2024/03/25 02:36:42;;;;;;;2.08;1.00;;;;;;;;;;4984523;28;20047;-62
2024/03/25 02:39:10;;;;;;;1.25;1.02;;;;;;;;;;4985529;28;20047;-60
2024/03/25 02:41:37;;;;;;;1.23;1.02;;;;;;;;;;4989125;28;20054;-62
2024/03/25 02:44:06;;;;;;;1.52;1.10;;;;;;;;;;4980311;28;20058;-60
2024/03/25 02:46:33;;;;;;;1.58;0.90;;;;;;;;;;5007044;28;20059;-59
2024/03/25 02:49:01;;;;;;;2.80;1.40;;;;;;;;;;4978601;28;20047;-60
2024/03/25 02:51:27;;;;;;;1.63;1.13;;;;;;;;;;4982293;28;20058;-60
2024/03/25 02:53:54;;;;;;;4.68;1.27;;;;;;;;;;4984831;28;20059;-61
2024/03/25 02:56:21;;;;;;;1.90;1.10;;;;;;;;;;5002210;28;20044;-59
2024/03/25 02:58:48;;;;;;;2.20;0.95;;;;;;;;;;5085948;28;20040;-61
2024/03/25 03:01:16;;;;;;;3.90;1.08;;;;;;;;;;5086131;28;20052;-60
2024/03/25 03:03:44;;;;;;;1.50;1.08;;;;;;;;;;5089644;28;20048;-62
2024/03/25 03:06:10;;;;;;;0.93;0.90;;;;;;;;;;5075873;28;20059;-62
2024/03/25 03:08:38;;;;;;;1.35;1.25;;;;;;;;;;4977924;28;20415;-61
2024/03/25 03:11:04;;;;;;;1.73;1.33;;;;;;;;;;4987041;28;20070;-61
2024/03/25 03:13:32;;;;;;;2.55;1.83;;;;;;;;;;4988507;28;20061;-62
2024/03/25 03:15:58;;;;;;;1.42;0.90;;;;;;;;;;4985367;28;20062;-62
2024/03/25 03:18:27;;;;;;;1.77;1.20;;;;;;;;;;4982150;28;20054;-60
2024/03/25 03:20:55;;;;;;;2.58;1.13;;;;;;;;;;4985773;28;20153;-61
2024/03/25 03:23:22;;;;;;;3.75;1.33;;;;;;;;;;4986733;28;20057;-62
2024/03/25 03:25:49;;;;;;;1.92;1.40;;;;;;;;;;4987762;28;20054;-61
2024/03/25 03:28:16;;;;;;;2.97;1.10;;;;;;;;;;4986005;28;20058;-60
2024/03/25 03:30:43;;;;;;;1.58;1.30;;;;;;;;;;4985645;28;20111;-63
2024/03/25 03:33:11;;;;;;;2.08;1.10;;;;;;;;;;4986078;28;20066;-61
2024/03/25 03:35:38;;;;;;;2.40;1.10;;;;;;;;;;4987056;28;20054;-61
2024/03/25 03:38:06;;;;;;;1.77;1.15;;;;;;;;;;5005230;28;20442;-60
2024/03/25 03:40:33;;;;;;;1.30;1.20;;;;;;;;;;5006718;28;20049;-60
2024/03/25 03:43:00;;;;;;;1.63;1.15;;;;;;;;;;5007495;28;20050;-60
2024/03/25 03:45:27;;;;;;;3.30;1.27;;;;;;;;;;5006605;28;20062;-61
2024/03/25 03:47:54;;;;;;;3.55;1.17;;;;;;;;;;5006031;28;20054;-62
2024/03/25 03:50:20;;;;;;;3.67;1.40;;;;;;;;;;5006040;28;20054;-59
2024/03/25 03:52:49;;;;;;;1.85;1.25;;;;;;;;;;5006534;28;20550;-59
2024/03/25 03:55:15;;;;;;;4.18;1.42;;;;;;;;;;5002859;28;20050;-60
2024/03/25 03:57:43;;;;;;;1.30;1.20;;;;;;;;;;5005985;28;20054;-61
2024/03/25 04:00:11;;;;;;;1.90;1.30;;;;;;;;;;5006705;28;20499;-60
2024/03/25 04:02:40;;;;;;;1.60;1.48;;;;;;;;;;5005979;28;20053;-61
2024/03/25 04:05:06;;;;;;;1.38;1.10;;;;;;;;;;5005638;28;20518;-60
2024/03/25 04:07:34;;;;;;;1.08;1.08;;;;;;;;;;5006248;28;20049;-59
2024/03/25 04:10:03;;;;;;;5.20;1.40;;;;;;;;;;5006091;28;20472;-60
2024/03/25 04:12:31;;;;;;;1.35;1.20;;;;;;;;;;5006616;28;20046;-60
2024/03/25 04:14:57;;;;;;;1.02;0.80;;;;;;;;;;5005525;28;20046;-61
2024/03/25 04:17:24;;;;;;;1.73;1.10;;;;;;;;;;4992893;28;20054;-61
2024/03/25 04:19:51;;;;;;;1.52;1.25;;;;;;;;;;5003253;28;20096;-59
2024/03/25 04:22:19;;;;;;;1.10;1.02;;;;;;;;;;4982669;28;20047;-59
2024/03/25 04:24:45;;;;;;;1.10;1.00;;;;;;;;;;5015208;28;20568;-60
2024/03/25 04:27:14;;;;;;;3.38;1.30;;;;;;;;;;4975732;28;20046;-62
2024/03/25 04:29:40;;;;;;;1.65;1.10;;;;;;;;;;4986307;28;20475;-62
2024/03/25 04:32:08;;;;;;;1.27;1.17;;;;;;;;;;4986845;28;20104;-60
2024/03/25 04:34:35;;;;;;;1.63;1.10;;;;;;;;;;4984630;28;20104;-59
